createdAt,value
2022-11-07T00:01:40.989Z,96.91
2022-11-07T00:04:08.419Z,96.72
2022-11-07T00:06:37.813Z,96.82
2022-11-07T00:09:05.394Z,96.16
2022-11-07T00:11:32.712Z,95.37
2022-11-07T00:14:00.094Z,95.48
2022-11-07T00:16:29.059Z,94.57
2022-11-07T00:18:56.735Z,93.87
2022-11-07T00:21:24.280Z,92.98
2022-11-07T00:23:51.670Z,89.48
2022-11-07T00:26:19.447Z,88.47
2022-11-07T00:28:46.988Z,88.24
2022-11-07T00:31:15.644Z,87.01
2022-11-07T00:33:43.940Z,86.03
2022-11-07T00:36:20.877Z,84.94
2022-11-07T00:38:48.498Z,84.04
2022-11-07T00:41:16.276Z,83.78
2022-11-07T00:43:43.667Z,84.73
2022-11-07T00:46:12.690Z,85.25
2022-11-07T00:48:40.373Z,85.63
2022-11-07T00:51:14.262Z,85.98
2022-11-07T00:53:42.599Z,86.30
2022-11-07T00:56:12.082Z,85.87
2022-11-07T00:58:40.184Z,84.18
2022-11-07T01:01:13.067Z,84.36
2022-11-07T01:03:59.269Z,84.86
2022-11-07T01:06:30.617Z,85.03
2022-11-07T01:08:58.235Z,85.24
2022-11-07T01:11:27.408Z,84.91
2022-11-07T01:13:59.462Z,85.09
2022-11-07T01:16:28.892Z,85.62
2022-11-07T01:18:56.439Z,85.75
2022-11-07T01:21:24.162Z,85.83
2022-11-07T01:23:51.552Z,85.87
2022-11-07T01:26:19.186Z,86.43
2022-11-07T01:28:46.692Z,87.08
2022-11-07T01:31:16.343Z,87.22
2022-11-07T01:33:44.476Z,87.36
2022-11-07T01:36:15.563Z,87.33
2022-11-07T01:38:46.072Z,86.90
2022-11-07T01:41:35.556Z,88.08
2022-11-07T01:44:08.840Z,88.02
2022-11-07T01:46:38.819Z,87.77
2022-11-07T01:49:17.138Z,88.11
2022-11-07T01:51:49.576Z,89.83
2022-11-07T01:54:25.019Z,91.55
2022-11-07T01:56:54.524Z,91.97
2022-11-07T01:59:26.662Z,92.23
2022-11-07T02:01:54.197Z,92.20
2022-11-07T02:04:26.175Z,92.23
2022-11-07T02:07:01.211Z,92.35
2022-11-07T02:09:28.807Z,92.99
2022-11-07T02:12:01.205Z,92.79
2022-11-07T02:14:30.006Z,92.31
2022-11-07T02:16:57.813Z,92.10
2022-11-07T02:19:39.666Z,92.07
2022-11-07T02:22:22.797Z,92.26
2022-11-07T02:24:54.212Z,92.42
2022-11-07T02:27:24.883Z,92.42
2022-11-07T02:29:57.849Z,91.96
2022-11-07T02:32:25.448Z,91.13
2022-11-07T02:35:00.618Z,86.94
2022-11-07T02:37:34.728Z,85.75
2022-11-07T02:40:06.322Z,86.59
2022-11-07T02:42:43.776Z,87.22
2022-11-07T02:45:11.174Z,87.83
2022-11-07T02:47:38.501Z,88.05
2022-11-07T02:50:15.167Z,87.47
2022-11-07T02:52:44.219Z,85.82
2022-11-07T02:55:13.723Z,83.99
2022-11-07T02:57:41.580Z,80.84
2022-11-07T03:00:12.046Z,80.42
2022-11-07T03:02:40.114Z,80.81
2022-11-07T03:05:07.941Z,78.65
2022-11-07T03:07:35.314Z,77.10
2022-11-07T03:10:02.614Z,77.70
2022-11-07T03:12:29.974Z,77.19
2022-11-07T03:14:57.384Z,75.95
2022-11-07T03:17:24.863Z,75.58
2022-11-07T03:19:52.338Z,75.05
2022-11-07T03:22:19.617Z,74.43
2022-11-07T03:24:46.952Z,74.89
2022-11-07T03:27:15.681Z,74.68
2022-11-07T03:29:43.206Z,75.42
2022-11-07T03:32:10.821Z,75.78
2022-11-07T03:34:38.174Z,76.50
2022-11-07T03:37:05.969Z,76.18
2022-11-07T03:39:33.325Z,76.98
2022-11-07T03:42:00.778Z,77.31
2022-11-07T03:44:28.065Z,77.13
2022-11-07T03:46:55.338Z,76.41
2022-11-07T03:49:22.581Z,76.48
2022-11-07T03:51:49.987Z,75.17
2022-11-07T03:54:17.455Z,74.83
2022-11-07T03:56:44.807Z,74.99
2022-11-07T03:59:11.988Z,73.71
2022-11-07T04:01:39.300Z,73.25
2022-11-07T04:04:06.700Z,73.37
2022-11-07T04:06:33.958Z,73.16
2022-11-07T04:09:01.258Z,73.51
2022-11-07T04:11:46.855Z,75.99
2022-11-07T04:14:32.759Z,73.71
2022-11-07T04:17:26.095Z,73.75
2022-11-07T04:19:56.205Z,77.55
2022-11-07T04:22:25.062Z,78.86
2022-11-07T04:24:53.004Z,78.04
2022-11-07T04:27:39.059Z,79.96
2022-11-07T04:30:19.821Z,81.01
2022-11-07T04:32:55.139Z,81.69
2022-11-07T04:35:24.893Z,82.94
2022-11-07T04:37:53.210Z,83.10
2022-11-07T04:40:21.064Z,82.97
2022-11-07T04:42:49.335Z,83.63
2022-11-07T04:45:17.595Z,83.64
2022-11-07T04:47:44.857Z,84.60
2022-11-07T04:50:15.323Z,85.29
2022-11-07T04:52:43.291Z,85.30
2022-11-07T04:55:25.238Z,85.84
2022-11-07T04:57:53.835Z,86.21
2022-11-07T05:00:22.542Z,86.69
2022-11-07T05:02:51.044Z,86.37
2022-11-07T05:05:20.290Z,86.03
2022-11-07T05:07:48.115Z,83.43
2022-11-07T05:10:24.669Z,81.40
2022-11-07T05:12:52.100Z,81.00
2022-11-07T05:15:20.053Z,79.82
2022-11-07T05:17:47.584Z,76.78
2022-11-07T05:20:32.728Z,76.39
2022-11-07T05:23:13.482Z,76.92
2022-11-07T05:25:41.162Z,77.36
2022-11-07T05:28:10.451Z,77.39
2022-11-07T05:30:42.384Z,76.17
2022-11-07T05:33:11.795Z,77.29
2022-11-07T05:35:39.622Z,78.20
2022-11-07T05:38:06.966Z,79.46
2022-11-07T05:40:39.391Z,80.68
2022-11-07T05:43:09.075Z,81.51
2022-11-07T05:45:41.390Z,81.59
2022-11-07T05:48:11.783Z,81.86
2022-11-07T05:50:40.242Z,81.35
2022-11-07T05:53:08.070Z,81.14
2022-11-07T05:55:35.434Z,80.77
2022-11-07T05:58:08.718Z,80.65
2022-11-07T06:00:36.211Z,81.13
2022-11-07T06:03:03.821Z,81.76
2022-11-07T06:05:31.359Z,81.35
2022-11-07T06:07:58.788Z,81.20
2022-11-07T06:10:26.532Z,80.66
2022-11-07T06:13:02.184Z,80.42
2022-11-07T06:15:31.259Z,79.16
2022-11-07T06:18:07.506Z,79.08
2022-11-07T06:20:35.746Z,79.44
2022-11-07T06:23:05.740Z,80.51
2022-11-07T06:25:34.205Z,81.26
2022-11-07T06:28:03.986Z,80.73
2022-11-07T06:30:31.657Z,79.11
2022-11-07T06:33:06.600Z,78.97
2022-11-07T06:35:34.102Z,78.46
2022-11-07T06:38:06.529Z,78.65
2022-11-07T06:40:34.453Z,79.05
2022-11-07T06:43:17.999Z,78.57
2022-11-07T06:45:46.917Z,78.00
2022-11-07T06:48:15.937Z,77.02
2022-11-07T06:50:43.341Z,76.54
2022-11-07T06:53:13.236Z,77.25
2022-11-07T06:55:41.212Z,77.44
2022-11-07T06:58:08.641Z,75.87
2022-11-07T07:00:36.947Z,74.66
2022-11-07T07:03:05.142Z,74.13
2022-11-07T07:05:33.822Z,73.28
2022-11-07T07:08:01.626Z,72.63
2022-11-07T07:10:29.174Z,72.02
2022-11-07T07:12:56.835Z,70.63
2022-11-07T07:16:09.268Z,100.00
2022-11-07T07:19:35.172Z,100.00
2022-11-07T07:23:05.515Z,100.00
2022-11-07T07:26:31.709Z,100.00
2022-11-07T07:29:57.580Z,100.00
2022-11-07T07:33:23.435Z,100.00
2022-11-07T07:36:49.421Z,100.00
2022-11-07T07:40:15.315Z,100.00
2022-11-07T07:43:42.068Z,100.00
2022-11-07T07:47:11.223Z,100.00
2022-11-07T07:50:37.595Z,100.00
2022-11-07T07:54:03.550Z,100.00
2022-11-07T07:57:29.474Z,100.00
2022-11-07T08:00:59.711Z,100.00
2022-11-07T08:04:26.587Z,100.00
2022-11-07T08:07:52.740Z,100.00
2022-11-07T08:11:20.189Z,100.00
2022-11-07T08:14:46.144Z,100.00
2022-11-07T08:18:12.001Z,100.00
2022-11-07T08:21:38.794Z,100.00
2022-11-07T08:25:06.791Z,100.00
2022-11-07T08:28:34.384Z,100.00
2022-11-07T08:32:00.132Z,100.00
2022-11-07T08:35:26.114Z,100.00
2022-11-07T08:38:53.857Z,100.00
2022-11-07T08:42:20.049Z,100.00
2022-11-07T08:45:46.823Z,100.00
2022-11-07T08:49:13.628Z,100.00
2022-11-07T08:52:39.682Z,100.00
2022-11-07T08:56:07.698Z,100.00
2022-11-07T08:59:34.257Z,100.00
2022-11-07T09:03:38.728Z,100.00
2022-11-07T09:06:47.695Z,100.00
2022-11-07T09:10:13.748Z,100.00
2022-11-07T09:13:49.402Z,100.00
2022-11-07T09:17:15.617Z,100.00
2022-11-07T09:20:41.564Z,100.00
2022-11-07T09:24:08.642Z,100.00
2022-11-07T09:27:34.564Z,100.00
2022-11-07T09:31:01.444Z,100.00
2022-11-07T09:34:27.702Z,100.00
2022-11-07T09:37:53.769Z,100.00
2022-11-07T09:41:37.063Z,100.00
2022-11-07T09:45:09.553Z,100.00
2022-11-07T09:49:01.512Z,100.00
2022-11-07T09:52:49.863Z,100.00
2022-11-07T09:56:16.080Z,100.00
2022-11-07T09:59:50.555Z,100.00
2022-11-07T10:03:18.210Z,100.00
2022-11-07T10:07:17.978Z,100.00
2022-11-07T10:11:01.414Z,100.00
2022-11-07T10:14:53.793Z,100.00
2022-11-07T10:18:51.824Z,100.00
2022-11-07T10:22:23.479Z,100.00
2022-11-07T10:25:54.817Z,100.00
2022-11-07T10:29:22.420Z,100.00
2022-11-07T10:33:07.386Z,100.00
2022-11-07T10:36:34.713Z,100.00
2022-11-07T10:40:00.673Z,100.00
2022-11-07T10:43:34.345Z,100.00
2022-11-07T10:47:16.419Z,100.00
2022-11-07T10:50:54.927Z,100.00
2022-11-07T10:54:28.706Z,100.00
2022-11-07T10:58:06.461Z,100.00
2022-11-07T11:01:33.589Z,100.00
2022-11-07T11:05:02.696Z,100.00
2022-11-07T11:08:38.028Z,100.00
2022-11-07T11:12:37.986Z,100.00
2022-11-07T11:16:15.929Z,100.00
2022-11-07T11:19:53.023Z,100.00
2022-11-07T11:23:23.058Z,100.00
2022-11-07T11:26:52.021Z,100.00
2022-11-07T11:30:26.827Z,100.00
2022-11-07T11:34:17.521Z,100.00
2022-11-07T11:37:55.469Z,100.00
2022-11-07T11:41:34.032Z,100.00
2022-11-07T11:45:18.229Z,100.00
2022-11-07T11:49:01.119Z,100.00
2022-11-07T11:52:38.110Z,100.00
2022-11-07T11:56:35.453Z,100.00
2022-11-07T12:00:20.485Z,100.00
2022-11-07T12:04:26.218Z,100.00
2022-11-07T12:07:59.364Z,100.00
2022-11-07T12:11:53.895Z,100.00
2022-11-07T12:15:10.117Z,68.50
2022-11-07T12:18:15.642Z,42.94
2022-11-07T12:21:18.444Z,45.13
2022-11-07T12:23:46.326Z,48.41
2022-11-07T12:26:33.575Z,49.39
2022-11-07T12:29:06.641Z,49.91
2022-11-07T12:31:59.590Z,50.41
2022-11-07T12:34:30.201Z,51.26
2022-11-07T12:37:22.819Z,53.42
2022-11-07T12:40:27.671Z,54.43
2022-11-07T12:43:23.300Z,54.13
2022-11-07T12:46:17.046Z,53.54
2022-11-07T12:49:05.816Z,53.81
2022-11-07T12:52:09.831Z,53.39
2022-11-07T12:55:22.254Z,53.08
2022-11-07T12:57:52.474Z,54.32
2022-11-07T13:00:26.160Z,54.41
2022-11-07T13:03:33.180Z,54.44
2022-11-07T13:06:20.120Z,53.65
2022-11-07T13:09:05.300Z,54.04
2022-11-07T13:11:46.479Z,53.42
2022-11-07T13:14:33.376Z,53.56
2022-11-07T13:17:11.602Z,53.64
2022-11-07T13:19:41.950Z,53.53
2022-11-07T13:22:18.186Z,53.97
2022-11-07T13:25:13.437Z,53.35
2022-11-07T13:27:47.211Z,52.99
2022-11-07T13:30:14.778Z,52.74
2022-11-07T13:32:43.968Z,52.96
2022-11-07T13:35:32.163Z,53.05
2022-11-07T13:38:05.925Z,52.69
2022-11-07T13:40:51.601Z,52.56
2022-11-07T13:43:25.312Z,52.41
2022-11-07T13:47:03.097Z,100.00
2022-11-07T13:50:42.510Z,100.00
2022-11-07T13:54:27.662Z,100.00
2022-11-07T13:58:04.118Z,100.00
2022-11-07T14:01:51.327Z,100.00
2022-11-07T14:05:22.271Z,100.00
2022-11-07T14:08:50.414Z,100.00
2022-11-07T14:12:21.899Z,100.00
2022-11-07T14:15:50.201Z,100.00
2022-11-07T14:19:18.297Z,100.00
2022-11-07T14:22:49.059Z,100.00
2022-11-07T14:26:33.061Z,100.00
2022-11-07T14:30:03.060Z,100.00
2022-11-07T14:33:28.984Z,100.00
2022-11-07T14:36:56.500Z,100.00
2022-11-07T14:40:22.862Z,100.00
2022-11-07T14:43:51.299Z,100.00
2022-11-07T14:47:21.013Z,100.00
2022-11-07T14:50:49.015Z,100.00
2022-11-07T14:54:23.552Z,100.00
2022-11-07T14:56:56.163Z,59.92
2022-11-07T14:59:26.461Z,60.52
2022-11-07T15:02:00.427Z,60.80
2022-11-07T15:04:37.601Z,60.81
2022-11-07T15:07:23.490Z,61.69
2022-11-07T15:09:51.778Z,61.74
2022-11-07T15:12:28.156Z,62.14
2022-11-07T15:15:03.263Z,62.13
2022-11-07T15:17:30.934Z,62.23
2022-11-07T15:20:04.724Z,62.67
2022-11-07T15:22:41.293Z,63.37
2022-11-07T15:25:32.692Z,63.78
2022-11-07T15:28:11.950Z,64.45
2022-11-07T15:30:40.145Z,65.13
2022-11-07T15:33:12.854Z,64.01
2022-11-07T15:35:44.815Z,63.95
2022-11-07T15:38:21.953Z,64.19
2022-11-07T15:40:51.790Z,64.50
2022-11-07T15:43:19.795Z,65.10
2022-11-07T15:45:49.859Z,65.39
2022-11-07T15:48:23.313Z,65.74
2022-11-07T15:50:51.289Z,66.24
2022-11-07T15:53:26.440Z,66.67
2022-11-07T15:55:56.924Z,67.13
2022-11-07T15:58:26.780Z,67.81
2022-11-07T16:00:55.253Z,68.44
2022-11-07T16:03:25.559Z,68.63
2022-11-07T16:05:58.345Z,68.98
2022-11-07T16:08:26.125Z,69.04
2022-11-07T16:11:01.354Z,69.15
2022-11-07T16:13:29.198Z,69.94
2022-11-07T16:16:00.432Z,69.94
2022-11-07T16:18:28.713Z,70.13
2022-11-07T16:20:56.065Z,70.12
2022-11-07T16:23:23.476Z,70.64
2022-11-07T16:25:51.528Z,70.86
2022-11-07T16:28:33.399Z,71.04
2022-11-07T16:31:02.228Z,71.23
2022-11-07T16:33:30.034Z,71.71
2022-11-07T16:36:00.409Z,71.95
2022-11-07T16:38:34.980Z,71.92
2022-11-07T16:41:02.718Z,71.99
2022-11-07T16:43:35.254Z,71.89
2022-11-07T16:46:02.891Z,71.94
2022-11-07T16:48:30.954Z,71.83
2022-11-07T16:50:58.766Z,72.40
2022-11-07T16:53:26.450Z,72.44
2022-11-07T16:55:55.257Z,73.16
2022-11-07T16:58:24.888Z,73.09
2022-11-07T17:00:53.435Z,73.28
2022-11-07T17:03:20.976Z,73.98
2022-11-07T17:05:49.049Z,74.26
2022-11-07T17:08:23.345Z,74.81
2022-11-07T17:10:51.205Z,74.89
2022-11-07T17:13:19.070Z,75.10
2022-11-07T17:15:46.962Z,75.91
2022-11-07T17:18:25.206Z,76.16
2022-11-07T17:20:54.242Z,76.43
2022-11-07T17:23:29.635Z,76.63
2022-11-07T17:26:02.551Z,76.44
2022-11-07T17:28:30.022Z,77.08
2022-11-07T17:30:57.338Z,77.45
2022-11-07T17:33:24.944Z,77.39
2022-11-07T17:35:55.248Z,78.29
2022-11-07T17:38:22.734Z,78.36
2022-11-07T17:40:50.084Z,78.50
2022-11-07T17:43:17.536Z,78.65
2022-11-07T17:45:46.046Z,78.89
2022-11-07T17:48:14.030Z,78.94
2022-11-07T17:50:41.672Z,79.56
2022-11-07T17:53:09.133Z,79.50
2022-11-07T17:55:37.399Z,79.01
2022-11-07T17:58:05.851Z,79.06
2022-11-07T18:00:33.282Z,79.68
2022-11-07T18:03:01.227Z,79.75
2022-11-07T18:05:34.926Z,79.95
2022-11-07T18:08:02.898Z,79.74
2022-11-07T18:10:30.720Z,78.96
2022-11-07T18:12:58.956Z,78.33
2022-11-07T18:15:26.788Z,77.96
2022-11-07T18:17:54.081Z,77.90
2022-11-07T18:20:21.730Z,77.69
2022-11-07T18:22:49.261Z,77.54
2022-11-07T18:25:16.699Z,77.90
2022-11-07T18:27:44.142Z,78.03
2022-11-07T18:30:12.384Z,78.37
2022-11-07T18:32:39.843Z,78.38
2022-11-07T18:35:07.346Z,78.95
2022-11-07T18:37:34.931Z,78.59
2022-11-07T18:40:02.292Z,78.34
2022-11-07T18:42:29.879Z,78.46
2022-11-07T18:44:57.479Z,77.98
2022-11-07T18:47:26.051Z,77.98
2022-11-07T18:49:57.113Z,79.00
2022-11-07T18:52:25.221Z,78.24
2022-11-07T18:54:52.629Z,77.54
2022-11-07T18:57:20.036Z,78.04
2022-11-07T18:59:48.503Z,78.67
2022-11-07T19:02:17.233Z,79.12
2022-11-07T19:04:44.957Z,78.98
2022-11-07T19:07:12.497Z,79.40
2022-11-07T19:09:39.919Z,79.03
2022-11-07T19:12:07.551Z,78.55
2022-11-07T19:14:35.457Z,79.48
2022-11-07T19:17:02.774Z,79.28
2022-11-07T19:19:30.261Z,79.32
2022-11-07T19:21:57.606Z,79.39
2022-11-07T19:24:25.063Z,78.79
2022-11-07T19:26:52.369Z,78.43
2022-11-07T19:29:19.784Z,78.29
2022-11-07T19:31:47.154Z,78.91
2022-11-07T19:34:17.080Z,79.47
2022-11-07T19:36:44.507Z,79.82
2022-11-07T19:39:12.022Z,79.23
2022-11-07T19:41:39.359Z,79.81
2022-11-07T19:44:07.346Z,80.35
2022-11-07T19:46:34.605Z,80.51
2022-11-07T19:49:01.974Z,80.67
2022-11-07T19:51:29.460Z,79.77
2022-11-07T19:53:59.143Z,79.52
2022-11-07T19:56:29.721Z,80.25
2022-11-07T19:58:57.749Z,79.66
2022-11-07T20:01:28.649Z,79.52
2022-11-07T20:03:56.655Z,79.92
2022-11-07T20:06:35.856Z,80.10
2022-11-07T20:09:06.602Z,80.51
2022-11-07T20:11:34.719Z,80.46
2022-11-07T20:14:03.967Z,80.25
2022-11-07T20:16:33.619Z,79.41
2022-11-07T20:19:02.026Z,78.71
2022-11-07T20:21:30.476Z,78.48
2022-11-07T20:24:00.043Z,79.10
2022-11-07T20:26:29.335Z,80.32
2022-11-07T20:28:56.856Z,80.76
2022-11-07T20:31:27.057Z,81.37
2022-11-07T20:33:57.156Z,81.27
2022-11-07T20:36:24.678Z,81.00
2022-11-07T20:38:54.969Z,80.53
2022-11-07T20:41:23.842Z,81.06
2022-11-07T20:44:03.960Z,81.01
2022-11-07T20:46:33.671Z,81.40
2022-11-07T20:49:05.253Z,81.43
2022-11-07T20:51:32.924Z,82.04
2022-11-07T20:54:00.386Z,82.49
2022-11-07T20:56:28.848Z,81.57
2022-11-07T20:58:58.187Z,81.52
2022-11-07T21:01:28.134Z,82.05
2022-11-07T21:03:56.129Z,82.53
2022-11-07T21:06:23.507Z,83.38
2022-11-07T21:08:50.980Z,83.66
2022-11-07T21:11:18.431Z,84.12
2022-11-07T21:13:52.361Z,84.09
2022-11-07T21:16:24.575Z,84.51
2022-11-07T21:18:53.004Z,84.52
2022-11-07T21:21:23.354Z,84.70
2022-11-07T21:23:51.873Z,84.63
2022-11-07T21:26:33.939Z,84.78
2022-11-07T21:29:02.645Z,85.13
2022-11-07T21:31:31.567Z,85.22
2022-11-07T21:33:59.245Z,85.04
2022-11-07T21:36:28.735Z,85.02
2022-11-07T21:39:00.924Z,85.04
2022-11-07T21:41:29.280Z,85.02
2022-11-07T21:43:57.845Z,85.17
2022-11-07T21:46:28.189Z,85.74
2022-11-07T21:48:56.157Z,85.88
2022-11-07T21:51:31.787Z,85.96
2022-11-07T21:53:59.417Z,86.06
2022-11-07T21:56:29.366Z,86.23
2022-11-07T21:59:05.348Z,86.30
2022-11-07T22:01:35.448Z,86.53
2022-11-07T22:04:10.230Z,86.19
2022-11-07T22:06:41.323Z,84.96
2022-11-07T22:09:12.310Z,85.32
2022-11-07T22:11:39.711Z,85.16
2022-11-07T22:14:07.094Z,85.23
2022-11-07T22:16:36.442Z,84.76
2022-11-07T22:19:07.215Z,84.16
2022-11-07T22:21:37.401Z,83.93
2022-11-07T22:24:04.716Z,83.96
2022-11-07T22:26:32.108Z,83.99
2022-11-07T22:28:59.469Z,84.21
2022-11-07T22:31:30.456Z,84.38
2022-11-07T22:34:00.199Z,84.03
2022-11-07T22:36:28.121Z,84.36
2022-11-07T22:38:57.807Z,85.13
2022-11-07T22:41:27.313Z,84.66
2022-11-07T22:43:55.869Z,83.97
2022-11-07T22:46:29.376Z,83.37
2022-11-07T22:48:57.775Z,84.02
2022-11-07T22:51:30.915Z,84.77
2022-11-07T22:54:06.615Z,85.21
2022-11-07T22:56:36.358Z,84.88
2022-11-07T22:59:05.308Z,84.71
2022-11-07T23:01:38.446Z,84.77
2022-11-07T23:04:07.003Z,83.78
2022-11-07T23:06:34.481Z,83.05
2022-11-07T23:09:02.359Z,82.50
2022-11-07T23:11:48.646Z,83.13
2022-11-07T23:14:19.989Z,83.76
2022-11-07T23:16:50.284Z,84.14
2022-11-07T23:19:19.528Z,84.02
2022-11-07T23:21:46.913Z,83.84
2022-11-07T23:24:14.399Z,83.36
2022-11-07T23:26:41.837Z,83.17
2022-11-07T23:29:13.904Z,82.54
2022-11-07T23:31:44.058Z,82.86
2022-11-07T23:34:11.984Z,83.63
2022-11-07T23:36:44.309Z,83.64
2022-11-07T23:39:18.534Z,84.20
2022-11-07T23:41:46.680Z,84.09
2022-11-07T23:44:14.902Z,84.36
2022-11-07T23:47:01.393Z,84.34
2022-11-07T23:49:47.469Z,84.75
2022-11-07T23:52:15.200Z,83.74
2022-11-07T23:55:00.760Z,83.23
2022-11-07T23:57:29.433Z,83.29
